sensor_id;sensor_type;location;lat;lon;timestamp;pressure;altitude;pressure_sealevel;temperature;humidity
28683;BME280;15862;43.062;25.626;2023-01-31T00:01:20;99636.28;;;0.27;100.00
28683;BME280;15862;43.062;25.626;2023-01-31T00:03:46;99646.13;;;0.36;100.00
28683;BME280;15862;43.062;25.626;2023-01-31T00:06:20;99646.00;;;0.39;100.00
28683;BME280;15862;43.062;25.626;2023-01-31T00:08:48;99645.41;;;0.32;100.00
28683;BME280;15862;43.062;25.626;2023-01-31T00:11:15;99636.84;;;0.35;100.00
28683;BME280;15862;43.062;25.626;2023-01-31T00:13:42;99617.34;;;0.35;100.00
28683;BME280;15862;43.062;25.626;2023-01-31T00:16:09;99609.97;;;0.29;100.00
28683;BME280;15862;43.062;25.626;2023-01-31T00:18:35;99617.41;;;0.34;100.00
28683;BME280;15862;43.062;25.626;2023-01-31T00:21:13;99610.78;;;0.30;100.00
28683;BME280;15862;43.062;25.626;2023-01-31T00:23:40;99627.56;;;0.34;100.00
28683;BME280;15862;43.062;25.626;2023-01-31T00:26:08;99614.75;;;0.37;100.00
28683;BME280;15862;43.062;25.626;2023-01-31T00:28:33;99615.28;;;0.23;100.00
28683;BME280;15862;43.062;25.626;2023-01-31T00:30:59;99617.69;;;0.26;100.00
28683;BME280;15862;43.062;25.626;2023-01-31T00:33:24;99624.19;;;0.33;100.00
28683;BME280;15862;43.062;25.626;2023-01-31T00:35:49;99611.47;;;0.33;100.00
28683;BME280;15862;43.062;25.626;2023-01-31T00:38:15;99611.78;;;0.26;100.00
28683;BME280;15862;43.062;25.626;2023-01-31T00:40:40;99606.78;;;0.24;100.00
28683;BME280;15862;43.062;25.626;2023-01-31T00:43:06;99608.91;;;0.35;100.00
28683;BME280;15862;43.062;25.626;2023-01-31T00:45:31;99612.88;;;0.42;100.00
28683;BME280;15862;43.062;25.626;2023-01-31T00:47:56;99622.69;;;0.51;100.00
28683;BME280;15862;43.062;25.626;2023-01-31T00:50:22;99628.28;;;0.59;100.00
28683;BME280;15862;43.062;25.626;2023-01-31T00:52:47;99631.50;;;0.64;100.00
28683;BME280;15862;43.062;25.626;2023-01-31T00:55:13;99631.59;;;0.61;100.00
28683;BME280;15862;43.062;25.626;2023-01-31T00:57:38;99628.06;;;0.65;100.00
28683;BME280;15862;43.062;25.626;2023-01-31T01:00:04;99626.06;;;0.73;100.00
28683;BME280;15862;43.062;25.626;2023-01-31T01:02:30;99622.41;;;0.79;100.00
28683;BME280;15862;43.062;25.626;2023-01-31T01:04:55;99612.59;;;0.71;100.00
28683;BME280;15862;43.062;25.626;2023-01-31T01:07:21;99637.41;;;0.85;100.00
28683;BME280;15862;43.062;25.626;2023-01-31T01:09:47;99628.94;;;0.85;100.00
28683;BME280;15862;43.062;25.626;2023-01-31T01:12:12;99619.97;;;0.76;100.00
28683;BME280;15862;43.062;25.626;2023-01-31T01:14:38;99636.47;;;0.88;100.00
28683;BME280;15862;43.062;25.626;2023-01-31T01:17:03;99635.09;;;0.79;100.00
28683;BME280;15862;43.062;25.626;2023-01-31T01:19:29;99640.06;;;0.82;100.00
28683;BME280;15862;43.062;25.626;2023-01-31T01:21:54;99622.75;;;0.71;100.00
28683;BME280;15862;43.062;25.626;2023-01-31T01:24:20;99643.94;;;0.91;100.00
28683;BME280;15862;43.062;25.626;2023-01-31T01:26:46;99634.09;;;0.83;100.00
28683;BME280;15862;43.062;25.626;2023-01-31T01:29:12;99634.19;;;0.80;100.00
28683;BME280;15862;43.062;25.626;2023-01-31T01:31:38;99632.56;;;0.79;100.00
28683;BME280;15862;43.062;25.626;2023-01-31T01:34:07;99636.28;;;0.92;100.00
28683;BME280;15862;43.062;25.626;2023-01-31T01:36:34;99634.31;;;0.99;100.00
28683;BME280;15862;43.062;25.626;2023-01-31T01:39:00;99627.38;;;1.02;100.00
28683;BME280;15862;43.062;25.626;2023-01-31T01:41:26;99636.91;;;0.97;100.00
28683;BME280;15862;43.062;25.626;2023-01-31T01:43:53;99642.06;;;0.96;100.00
28683;BME280;15862;43.062;25.626;2023-01-31T01:48:58;99645.19;;;1.02;100.00
28683;BME280;15862;43.062;25.626;2023-01-31T01:51:26;99631.47;;;0.85;100.00
28683;BME280;15862;43.062;25.626;2023-01-31T01:53:56;99631.47;;;0.85;100.00
28683;BME280;15862;43.062;25.626;2023-01-31T01:56:26;99631.19;;;0.92;100.00
28683;BME280;15862;43.062;25.626;2023-01-31T01:58:57;99593.19;;;0.89;100.00
28683;BME280;15862;43.062;25.626;2023-01-31T02:01:25;99620.06;;;1.16;100.00
28683;BME280;15862;43.062;25.626;2023-01-31T02:03:52;99609.75;;;1.19;100.00
28683;BME280;15862;43.062;25.626;2023-01-31T02:06:18;99598.00;;;1.17;100.00
28683;BME280;15862;43.062;25.626;2023-01-31T02:08:44;99602.72;;;1.26;100.00
28683;BME280;15862;43.062;25.626;2023-01-31T02:11:17;99605.75;;;1.34;100.00
28683;BME280;15862;43.062;25.626;2023-01-31T02:13:46;99598.13;;;1.34;100.00
28683;BME280;15862;43.062;25.626;2023-01-31T02:16:13;99614.38;;;1.49;100.00
28683;BME280;15862;43.062;25.626;2023-01-31T02:18:38;99594.25;;;1.45;100.00
28683;BME280;15862;43.062;25.626;2023-01-31T02:38:29;99601.59;;;1.71;100.00
28683;BME280;15862;43.062;25.626;2023-01-31T02:41:14;99598.16;;;1.72;100.00
28683;BME280;15862;43.062;25.626;2023-01-31T02:52:22;99582.91;;;1.90;100.00
28683;BME280;15862;43.062;25.626;2023-01-31T02:55:01;99590.63;;;1.89;100.00
28683;BME280;15862;43.062;25.626;2023-01-31T02:57:50;99586.00;;;1.97;100.00
28683;BME280;15862;43.062;25.626;2023-01-31T03:00:17;99585.88;;;2.00;100.00
28683;BME280;15862;43.062;25.626;2023-01-31T03:02:44;99583.44;;;1.97;100.00
28683;BME280;15862;43.062;25.626;2023-01-31T03:05:16;99580.97;;;1.95;100.00
28683;BME280;15862;43.062;25.626;2023-01-31T03:07:51;99566.66;;;1.93;100.00
28683;BME280;15862;43.062;25.626;2023-01-31T03:13:13;99578.91;;;2.03;100.00
28683;BME280;15862;43.062;25.626;2023-01-31T03:18:45;99589.00;;;2.06;100.00
28683;BME280;15862;43.062;25.626;2023-01-31T03:21:20;99590.41;;;2.12;100.00
28683;BME280;15862;43.062;25.626;2023-01-31T03:23:50;99592.81;;;1.96;100.00
28683;BME280;15862;43.062;25.626;2023-01-31T03:26:18;99580.84;;;1.80;100.00
28683;BME280;15862;43.062;25.626;2023-01-31T03:28:46;99598.00;;;1.95;100.00
28683;BME280;15862;43.062;25.626;2023-01-31T03:31:24;99594.41;;;1.99;100.00
28683;BME280;15862;43.062;25.626;2023-01-31T03:33:56;99603.81;;;1.97;100.00
28683;BME280;15862;43.062;25.626;2023-01-31T03:41:56;99615.59;;;1.81;100.00
28683;BME280;15862;43.062;25.626;2023-01-31T03:44:34;99612.00;;;1.85;100.00
28683;BME280;15862;43.062;25.626;2023-01-31T03:47:05;99609.56;;;1.82;100.00
28683;BME280;15862;43.062;25.626;2023-01-31T03:49:36;99617.38;;;1.79;100.00
28683;BME280;15862;43.062;25.626;2023-01-31T03:52:06;99621.56;;;1.80;100.00
28683;BME280;15862;43.062;25.626;2023-01-31T03:54:41;99613.28;;;1.75;100.00
28683;BME280;15862;43.062;25.626;2023-01-31T03:57:14;99626.47;;;1.84;100.00
28683;BME280;15862;43.062;25.626;2023-01-31T03:59:43;99632.09;;;1.91;100.00
28683;BME280;15862;43.062;25.626;2023-01-31T04:02:11;99625.44;;;1.88;100.00
28683;BME280;15862;43.062;25.626;2023-01-31T04:07:11;99626.03;;;1.93;100.00
28683;BME280;15862;43.062;25.626;2023-01-31T04:09:38;99621.91;;;1.91;100.00
28683;BME280;15862;43.062;25.626;2023-01-31T04:12:04;99613.59;;;1.87;100.00
28683;BME280;15862;43.062;25.626;2023-01-31T04:14:29;99619.38;;;1.91;100.00
28683;BME280;15862;43.062;25.626;2023-01-31T04:16:55;99609.34;;;1.88;100.00
28683;BME280;15862;43.062;25.626;2023-01-31T04:19:20;99622.81;;;1.90;100.00
28683;BME280;15862;43.062;25.626;2023-01-31T04:21:45;99633.41;;;1.81;100.00
28683;BME280;15862;43.062;25.626;2023-01-31T04:24:11;99620.44;;;1.67;100.00
28683;BME280;15862;43.062;25.626;2023-01-31T04:26:36;99621.88;;;1.72;100.00
28683;BME280;15862;43.062;25.626;2023-01-31T04:29:02;99624.53;;;1.89;100.00
28683;BME280;15862;43.062;25.626;2023-01-31T04:31:27;99604.47;;;2.02;100.00
28683;BME280;15862;43.062;25.626;2023-01-31T04:33:53;99610.59;;;2.16;100.00
28683;BME280;15862;43.062;25.626;2023-01-31T04:36:18;99603.84;;;2.33;100.00
28683;BME280;15862;43.062;25.626;2023-01-31T04:38:44;99570.38;;;2.41;100.00
28683;BME280;15862;43.062;25.626;2023-01-31T04:41:09;99593.97;;;2.63;100.00
28683;BME280;15862;43.062;25.626;2023-01-31T04:43:34;99588.50;;;2.70;100.00
28683;BME280;15862;43.062;25.626;2023-01-31T04:46:00;99596.03;;;2.73;100.00
28683;BME280;15862;43.062;25.626;2023-01-31T04:48:25;99603.97;;;2.84;100.00
28683;BME280;15862;43.062;25.626;2023-01-31T04:50:51;99606.38;;;2.87;100.00
28683;BME280;15862;43.062;25.626;2023-01-31T04:53:16;99600.69;;;2.99;100.00
28683;BME280;15862;43.062;25.626;2023-01-31T04:55:42;99610.00;;;3.00;100.00
28683;BME280;15862;43.062;25.626;2023-01-31T04:58:07;99614.22;;;3.01;100.00
28683;BME280;15862;43.062;25.626;2023-01-31T05:00:33;99612.25;;;3.06;100.00
28683;BME280;15862;43.062;25.626;2023-01-31T05:02:58;99619.84;;;3.07;100.00
28683;BME280;15862;43.062;25.626;2023-01-31T05:05:25;99612.13;;;3.09;100.00
28683;BME280;15862;43.062;25.626;2023-01-31T05:07:50;99605.94;;;3.13;100.00
28683;BME280;15862;43.062;25.626;2023-01-31T05:10:16;99607.03;;;3.09;100.00
28683;BME280;15862;43.062;25.626;2023-01-31T05:12:42;99608.88;;;3.05;100.00
28683;BME280;15862;43.062;25.626;2023-01-31T05:15:08;99605.38;;;3.08;100.00
28683;BME280;15862;43.062;25.626;2023-01-31T05:17:35;99615.44;;;3.11;100.00
28683;BME280;15862;43.062;25.626;2023-01-31T05:20:01;99612.13;;;3.09;100.00
28683;BME280;15862;43.062;25.626;2023-01-31T05:22:26;99616.09;;;3.14;100.00
28683;BME280;15862;43.062;25.626;2023-01-31T05:24:52;99627.13;;;3.15;100.00
28683;BME280;15862;43.062;25.626;2023-01-31T05:27:18;99627.13;;;3.15;100.00
28683;BME280;15862;43.062;25.626;2023-01-31T05:29:44;99626.09;;;3.19;100.00
28683;BME280;15862;43.062;25.626;2023-01-31T05:32:10;99625.25;;;3.18;100.00
28683;BME280;15862;43.062;25.626;2023-01-31T05:34:36;99625.25;;;3.18;100.00
28683;BME280;15862;43.062;25.626;2023-01-31T05:37:01;99626.81;;;3.21;100.00
28683;BME280;15862;43.062;25.626;2023-01-31T05:39:27;99624.28;;;3.21;100.00
28683;BME280;15862;43.062;25.626;2023-01-31T05:41:53;99637.13;;;3.19;100.00
28683;BME280;15862;43.062;25.626;2023-01-31T05:44:19;99632.09;;;3.18;100.00
28683;BME280;15862;43.062;25.626;2023-01-31T05:46:44;99630.56;;;3.14;100.00
28683;BME280;15862;43.062;25.626;2023-01-31T05:49:10;99632.31;;;3.13;100.00
28683;BME280;15862;43.062;25.626;2023-01-31T05:51:36;99643.78;;;3.22;100.00
28683;BME280;15862;43.062;25.626;2023-01-31T05:54:02;99643.97;;;3.19;100.00
28683;BME280;15862;43.062;25.626;2023-01-31T05:56:28;99652.50;;;3.18;100.00
28683;BME280;15862;43.062;25.626;2023-01-31T05:58:53;99652.34;;;3.21;100.00
28683;BME280;15862;43.062;25.626;2023-01-31T06:01:20;99662.63;;;3.19;100.00
28683;BME280;15862;43.062;25.626;2023-01-31T06:03:46;99659.78;;;3.25;100.00
28683;BME280;15862;43.062;25.626;2023-01-31T06:06:12;99657.91;;;3.29;100.00
28683;BME280;15862;43.062;25.626;2023-01-31T06:08:38;99655.34;;;3.29;100.00
28683;BME280;15862;43.062;25.626;2023-01-31T06:11:04;99648.75;;;3.25;100.00
28683;BME280;15862;43.062;25.626;2023-01-31T06:13:31;99677.97;;;3.36;100.00
28683;BME280;15862;43.062;25.626;2023-01-31T06:15:56;99660.31;;;3.32;100.00
28683;BME280;15862;43.062;25.626;2023-01-31T06:18:22;99680.31;;;3.41;100.00
28683;BME280;15862;43.062;25.626;2023-01-31T06:20:47;99681.03;;;3.43;100.00
28683;BME280;15862;43.062;25.626;2023-01-31T06:23:13;99684.47;;;3.42;100.00
28683;BME280;15862;43.062;25.626;2023-01-31T06:25:38;99681.03;;;3.43;100.00
28683;BME280;15862;43.062;25.626;2023-01-31T06:28:03;99698.53;;;3.50;100.00
28683;BME280;15862;43.062;25.626;2023-01-31T06:30:30;99680.97;;;3.44;100.00
28683;BME280;15862;43.062;25.626;2023-01-31T06:32:58;99698.03;;;3.61;100.00
28683;BME280;15862;43.062;25.626;2023-01-31T06:35:23;99688.16;;;3.53;100.00
28683;BME280;15862;43.062;25.626;2023-01-31T06:37:49;99697.84;;;3.64;100.00
28683;BME280;15862;43.062;25.626;2023-01-31T06:40:14;99709.06;;;3.61;100.00
28683;BME280;15862;43.062;25.626;2023-01-31T06:42:40;99691.81;;;3.66;100.00
28683;BME280;15862;43.062;25.626;2023-01-31T06:45:06;99687.19;;;3.73;100.00
28683;BME280;15862;43.062;25.626;2023-01-31T06:47:31;99694.50;;;3.80;100.00
28683;BME280;15862;43.062;25.626;2023-01-31T06:49:57;99693.06;;;3.91;100.00
28683;BME280;15862;43.062;25.626;2023-01-31T06:52:22;99696.06;;;3.99;100.00
28683;BME280;15862;43.062;25.626;2023-01-31T06:54:47;99698.88;;;4.10;100.00
28683;BME280;15862;43.062;25.626;2023-01-31T06:57:13;99694.28;;;4.17;100.00
28683;BME280;15862;43.062;25.626;2023-01-31T06:59:38;99698.88;;;4.10;100.00
28683;BME280;15862;43.062;25.626;2023-01-31T07:02:04;99700.22;;;4.17;100.00
28683;BME280;15862;43.062;25.626;2023-01-31T07:04:29;99709.75;;;4.31;100.00
28683;BME280;15862;43.062;25.626;2023-01-31T07:06:55;99709.13;;;4.26;100.00
28683;BME280;15862;43.062;25.626;2023-01-31T07:09:21;99713.44;;;4.25;100.00
28683;BME280;15862;43.062;25.626;2023-01-31T07:11:47;99717.25;;;4.34;100.00
28683;BME280;15862;43.062;25.626;2023-01-31T07:14:13;99718.09;;;4.34;100.00
28683;BME280;15862;43.062;25.626;2023-01-31T07:16:38;99728.00;;;4.40;100.00
28683;BME280;15862;43.062;25.626;2023-01-31T07:19:04;99721.53;;;4.33;100.00
28683;BME280;15862;43.062;25.626;2023-01-31T07:21:29;99723.69;;;4.41;100.00
28683;BME280;15862;43.062;25.626;2023-01-31T07:23:55;99726.00;;;4.45;100.00
28683;BME280;15862;43.062;25.626;2023-01-31T07:26:20;99710.53;;;4.48;100.00
28683;BME280;15862;43.062;25.626;2023-01-31T07:28:46;99707.63;;;4.39;100.00
28683;BME280;15862;43.062;25.626;2023-01-31T07:31:12;99736.25;;;4.45;100.00
28683;BME280;15862;43.062;25.626;2023-01-31T07:33:38;99732.56;;;4.51;100.00
28683;BME280;15862;43.062;25.626;2023-01-31T07:36:05;99728.50;;;4.47;100.00
28683;BME280;15862;43.062;25.626;2023-01-31T07:38:31;99743.31;;;4.57;100.00
28683;BME280;15862;43.062;25.626;2023-01-31T07:41:00;99750.13;;;4.56;100.00
28683;BME280;15862;43.062;25.626;2023-01-31T07:43:27;99736.00;;;4.50;100.00
28683;BME280;15862;43.062;25.626;2023-01-31T07:45:53;99736.84;;;4.50;100.00
28683;BME280;15862;43.062;25.626;2023-01-31T07:48:18;99749.63;;;4.50;100.00
28683;BME280;15862;43.062;25.626;2023-01-31T07:50:52;99749.78;;;4.47;100.00
28683;BME280;15862;43.062;25.626;2023-01-31T07:53:21;99743.19;;;4.43;100.00
28683;BME280;15862;43.062;25.626;2023-01-31T07:55:47;99745.81;;;4.42;100.00
28683;BME280;15862;43.062;25.626;2023-01-31T07:58:14;99747.47;;;4.43;100.00
28683;BME280;15862;43.062;25.626;2023-01-31T08:00:40;99738.22;;;4.40;100.00
28683;BME280;15862;43.062;25.626;2023-01-31T08:03:27;99733.69;;;4.45;100.00
28683;BME280;15862;43.062;25.626;2023-01-31T08:06:05;99735.97;;;4.66;100.00
28683;BME280;15862;43.062;25.626;2023-01-31T08:08:32;99733.50;;;4.96;100.00
28683;BME280;15862;43.062;25.626;2023-01-31T08:10:57;99726.25;;;5.04;100.00
28683;BME280;15862;43.062;25.626;2023-01-31T08:13:23;99741.44;;;5.22;100.00
28683;BME280;15862;43.062;25.626;2023-01-31T08:15:52;99734.16;;;5.30;100.00
28683;BME280;15862;43.062;25.626;2023-01-31T08:18:17;99744.16;;;5.34;99.78
28683;BME280;15862;43.062;25.626;2023-01-31T08:20:43;99731.09;;;5.24;98.57
28683;BME280;15862;43.062;25.626;2023-01-31T08:23:08;99750.00;;;5.52;99.33
28683;BME280;15862;43.062;25.626;2023-01-31T08:25:34;99735.97;;;5.43;99.17
28683;BME280;15862;43.062;25.626;2023-01-31T08:28:00;99743.34;;;5.63;98.59
28683;BME280;15862;43.062;25.626;2023-01-31T08:30:27;99716.91;;;5.78;96.33
28683;BME280;15862;43.062;25.626;2023-01-31T08:32:53;99729.19;;;5.87;96.77
28683;BME280;15862;43.062;25.626;2023-01-31T08:35:24;99742.50;;;6.07;96.04
28683;BME280;15862;43.062;25.626;2023-01-31T08:37:50;99738.31;;;6.20;93.69
28683;BME280;15862;43.062;25.626;2023-01-31T08:40:16;99728.69;;;6.10;94.25
28683;BME280;15862;43.062;25.626;2023-01-31T08:42:41;99745.44;;;6.15;94.05
28683;BME280;15862;43.062;25.626;2023-01-31T08:45:07;99751.38;;;6.02;93.05
28683;BME280;15862;43.062;25.626;2023-01-31T08:47:33;99752.03;;;6.06;95.18
28683;BME280;15862;43.062;25.626;2023-01-31T08:49:58;99749.03;;;6.27;94.11
28683;BME280;15862;43.062;25.626;2023-01-31T08:52:23;99768.66;;;6.56;93.21
28683;BME280;15862;43.062;25.626;2023-01-31T08:54:49;99765.72;;;6.62;90.40
28683;BME280;15862;43.062;25.626;2023-01-31T08:57:14;99770.94;;;6.32;91.50
28683;BME280;15862;43.062;25.626;2023-01-31T08:59:40;99773.72;;;6.57;91.50
28683;BME280;15862;43.062;25.626;2023-01-31T09:02:08;99774.16;;;6.50;91.71
28683;BME280;15862;43.062;25.626;2023-01-31T09:04:34;99771.97;;;6.58;90.90
28683;BME280;15862;43.062;25.626;2023-01-31T09:06:59;99768.75;;;6.40;90.37
28683;BME280;15862;43.062;25.626;2023-01-31T09:09:24;99773.41;;;6.62;90.59
28683;BME280;15862;43.062;25.626;2023-01-31T09:11:50;99764.78;;;6.90;88.19
28683;BME280;15862;43.062;25.626;2023-01-31T09:14:15;99770.72;;;7.19;87.13
28683;BME280;15862;43.062;25.626;2023-01-31T09:16:41;99764.28;;;7.52;84.91
28683;BME280;15862;43.062;25.626;2023-01-31T09:19:06;99764.66;;;7.99;81.81
28683;BME280;15862;43.062;25.626;2023-01-31T09:21:32;99762.47;;;8.56;74.07
28683;BME280;15862;43.062;25.626;2023-01-31T09:23:59;99733.63;;;8.27;77.02
28683;BME280;15862;43.062;25.626;2023-01-31T09:26:26;99752.44;;;9.72;68.29
28683;BME280;15862;43.062;25.626;2023-01-31T09:28:52;99750.13;;;9.10;68.62
28683;BME280;15862;43.062;25.626;2023-01-31T09:31:19;99743.06;;;8.76;72.33
28683;BME280;15862;43.062;25.626;2023-01-31T09:33:45;99753.16;;;8.66;72.77
28683;BME280;15862;43.062;25.626;2023-01-31T09:36:21;99764.94;;;8.07;77.24
28683;BME280;15862;43.062;25.626;2023-01-31T09:38:53;99753.44;;;7.61;80.63
28683;BME280;15862;43.062;25.626;2023-01-31T09:41:27;99752.94;;;7.42;84.07
28683;BME280;15862;43.062;25.626;2023-01-31T09:46:28;99749.22;;;6.93;86.08
28683;BME280;15862;43.062;25.626;2023-01-31T09:48:58;99748.59;;;6.62;88.17
28683;BME280;15862;43.062;25.626;2023-01-31T09:51:26;99737.69;;;6.59;89.69
28683;BME280;15862;43.062;25.626;2023-01-31T09:53:53;99742.09;;;6.43;90.77
28683;BME280;15862;43.062;25.626;2023-01-31T09:59:02;99759.13;;;6.44;90.88
28683;BME280;15862;43.062;25.626;2023-01-31T10:06:35;99749.00;;;6.13;94.15
28683;BME280;15862;43.062;25.626;2023-01-31T10:09:29;99747.56;;;6.09;92.97
28683;BME280;15862;43.062;25.626;2023-01-31T10:12:11;99747.97;;;6.02;93.76
28683;BME280;15862;43.062;25.626;2023-01-31T10:14:40;99745.28;;;5.89;94.42
28683;BME280;15862;43.062;25.626;2023-01-31T10:22:16;99732.06;;;5.97;94.69
28683;BME280;15862;43.062;25.626;2023-01-31T10:24:51;99716.47;;;6.00;95.88
28683;BME280;15862;43.062;25.626;2023-01-31T10:27:39;99724.56;;;6.21;94.93
28683;BME280;15862;43.062;25.626;2023-01-31T10:30:14;99711.47;;;6.12;93.77
28683;BME280;15862;43.062;25.626;2023-01-31T10:32:42;99723.22;;;6.16;95.78
28683;BME280;15862;43.062;25.626;2023-01-31T10:35:17;99718.63;;;6.35;96.33
28683;BME280;15862;43.062;25.626;2023-01-31T10:40:32;99708.19;;;6.52;94.29
28683;BME280;15862;43.062;25.626;2023-01-31T10:43:08;99714.78;;;6.56;92.60
28683;BME280;15862;43.062;25.626;2023-01-31T10:45:38;99710.03;;;6.50;93.63
28683;BME280;15862;43.062;25.626;2023-01-31T10:56:10;99688.56;;;5.95;95.77
28683;BME280;15862;43.062;25.626;2023-01-31T10:58:38;99716.22;;;6.18;99.09
28683;BME280;15862;43.062;25.626;2023-01-31T11:01:05;99709.38;;;6.05;97.47
28683;BME280;15862;43.062;25.626;2023-01-31T11:03:36;99703.97;;;6.09;96.27
28683;BME280;15862;43.062;25.626;2023-01-31T11:06:02;99705.56;;;5.96;96.09
28683;BME280;15862;43.062;25.626;2023-01-31T11:08:44;99695.88;;;5.87;97.80
28683;BME280;15862;43.062;25.626;2023-01-31T11:11:16;99702.00;;;5.85;98.70
28683;BME280;15862;43.062;25.626;2023-01-31T11:14:04;99698.25;;;6.04;98.19
28683;BME280;15862;43.062;25.626;2023-01-31T11:16:33;99710.94;;;6.21;97.27
28683;BME280;15862;43.062;25.626;2023-01-31T11:19:02;99701.69;;;6.32;95.50
28683;BME280;15862;43.062;25.626;2023-01-31T11:21:33;99704.09;;;6.35;94.11
28683;BME280;15862;43.062;25.626;2023-01-31T11:24:05;99701.97;;;6.28;93.59
28683;BME280;15862;43.062;25.626;2023-01-31T11:26:38;99699.94;;;6.19;94.58
28683;BME280;15862;43.062;25.626;2023-01-31T11:29:16;99706.81;;;6.18;95.70
28683;BME280;15862;43.062;25.626;2023-01-31T11:31:43;99678.75;;;6.02;95.14
28683;BME280;15862;43.062;25.626;2023-01-31T11:34:23;99695.44;;;6.08;95.36
28683;BME280;15862;43.062;25.626;2023-01-31T11:36:49;99686.84;;;6.23;94.86
28683;BME280;15862;43.062;25.626;2023-01-31T11:39:27;99685.13;;;6.38;94.82
28683;BME280;15862;43.062;25.626;2023-01-31T11:41:53;99680.69;;;6.68;94.32
28683;BME280;15862;43.062;25.626;2023-01-31T11:44:20;99679.28;;;7.16;89.39
28683;BME280;15862;43.062;25.626;2023-01-31T11:46:54;99670.25;;;7.23;88.60
28683;BME280;15862;43.062;25.626;2023-01-31T11:49:34;99676.28;;;7.49;87.59
28683;BME280;15862;43.062;25.626;2023-01-31T11:52:21;99668.19;;;7.55;82.31
28683;BME280;15862;43.062;25.626;2023-01-31T11:54:55;99670.16;;;7.63;82.65
28683;BME280;15862;43.062;25.626;2023-01-31T11:57:30;99659.44;;;7.57;80.39
28683;BME280;15862;43.062;25.626;2023-01-31T11:59:58;99666.19;;;7.33;82.33
28683;BME280;15862;43.062;25.626;2023-01-31T12:02:31;99671.22;;;7.08;86.28
28683;BME280;15862;43.062;25.626;2023-01-31T12:04:57;99682.41;;;7.07;87.71
28683;BME280;15862;43.062;25.626;2023-01-31T12:07:31;99654.16;;;6.81;88.44
28683;BME280;15862;43.062;25.626;2023-01-31T12:10:24;99689.38;;;6.65;92.19
28683;BME280;15862;43.062;25.626;2023-01-31T12:12:51;99680.63;;;6.27;98.21
28683;BME280;15862;43.062;25.626;2023-01-31T12:15:16;99667.75;;;5.86;100.00
28683;BME280;15862;43.062;25.626;2023-01-31T12:17:44;99678.31;;;5.95;100.00
28683;BME280;15862;43.062;25.626;2023-01-31T12:23:04;99683.63;;;6.76;99.88
28683;BME280;15862;43.062;25.626;2023-01-31T12:28:53;99692.78;;;8.35;82.29
28683;BME280;15862;43.062;25.626;2023-01-31T12:47:54;99688.25;;;7.62;82.94
28683;BME280;15862;43.062;25.626;2023-01-31T12:50:25;99695.09;;;7.10;89.54
28683;BME280;15862;43.062;25.626;2023-01-31T13:01:56;99698.09;;;6.63;94.18
28683;BME280;15862;43.062;25.626;2023-01-31T13:06:57;99685.00;;;6.53;95.27
28683;BME280;15862;43.062;25.626;2023-01-31T13:09:30;99699.22;;;6.45;95.62
28683;BME280;15862;43.062;25.626;2023-01-31T13:12:10;99687.09;;;6.19;96.76
28683;BME280;15862;43.062;25.626;2023-01-31T13:14:48;99695.72;;;6.18;100.00
28683;BME280;15862;43.062;25.626;2023-01-31T13:17:17;99706.44;;;6.10;100.00
28683;BME280;15862;43.062;25.626;2023-01-31T13:19:56;99707.06;;;6.00;100.00
28683;BME280;15862;43.062;25.626;2023-01-31T13:22:27;99689.09;;;5.86;100.00
28683;BME280;15862;43.062;25.626;2023-01-31T13:30:35;99721.69;;;5.98;100.00
28683;BME280;15862;43.062;25.626;2023-01-31T13:33:16;99738.72;;;5.99;100.00
28683;BME280;15862;43.062;25.626;2023-01-31T13:35:44;99727.09;;;5.94;100.00
28683;BME280;15862;43.062;25.626;2023-01-31T13:38:17;99739.81;;;5.81;100.00
28683;BME280;15862;43.062;25.626;2023-01-31T13:40:52;99744.19;;;5.79;100.00
28683;BME280;15862;43.062;25.626;2023-01-31T13:43:19;99743.00;;;5.69;100.00
28683;BME280;15862;43.062;25.626;2023-01-31T13:45:52;99744.34;;;5.61;100.00
28683;BME280;15862;43.062;25.626;2023-01-31T13:48:28;99749.94;;;5.67;100.00
28683;BME280;15862;43.062;25.626;2023-01-31T13:53:37;99750.50;;;5.58;100.00
28683;BME280;15862;43.062;25.626;2023-01-31T13:56:09;99741.91;;;5.59;100.00
28683;BME280;15862;43.062;25.626;2023-01-31T13:58:38;99747.47;;;5.66;100.00
28683;BME280;15862;43.062;25.626;2023-01-31T14:01:23;99744.66;;;5.70;100.00
28683;BME280;15862;43.062;25.626;2023-01-31T14:11:49;99745.78;;;5.51;100.00
28683;BME280;15862;43.062;25.626;2023-01-31T14:14:20;99751.84;;;5.34;100.00
28683;BME280;15862;43.062;25.626;2023-01-31T14:16:53;99730.53;;;5.19;100.00
28683;BME280;15862;43.062;25.626;2023-01-31T14:24:53;99766.28;;;5.05;100.00
28683;BME280;15862;43.062;25.626;2023-01-31T14:27:15;99762.06;;;5.04;100.00
28683;BME280;15862;43.062;25.626;2023-01-31T14:29:42;99767.53;;;5.13;100.00
28683;BME280;15862;43.062;25.626;2023-01-31T14:32:21;99769.19;;;5.14;100.00
28683;BME280;15862;43.062;25.626;2023-01-31T14:34:49;99771.97;;;5.10;100.00
28683;BME280;15862;43.062;25.626;2023-01-31T14:42:47;99767.78;;;5.09;100.00
28683;BME280;15862;43.062;25.626;2023-01-31T14:58:52;99815.44;;;5.11;100.00
28683;BME280;15862;43.062;25.626;2023-01-31T15:01:20;99810.47;;;5.08;100.00
28683;BME280;15862;43.062;25.626;2023-01-31T15:03:53;99812.78;;;5.13;100.00
28683;BME280;15862;43.062;25.626;2023-01-31T15:06:32;99816.66;;;5.20;100.00
28683;BME280;15862;43.062;25.626;2023-01-31T15:11:48;99831.28;;;5.18;100.00
28683;BME280;15862;43.062;25.626;2023-01-31T15:14:39;99835.41;;;5.20;100.00
28683;BME280;15862;43.062;25.626;2023-01-31T15:17:19;99836.41;;;5.18;100.00
28683;BME280;15862;43.062;25.626;2023-01-31T15:19:56;99847.38;;;5.20;100.00
28683;BME280;15862;43.062;25.626;2023-01-31T15:22:24;99837.28;;;5.17;100.00
28683;BME280;15862;43.062;25.626;2023-01-31T15:24:53;99848.78;;;5.10;100.00
28683;BME280;15862;43.062;25.626;2023-01-31T15:27:25;99843.97;;;5.04;100.00